Terminal Aerodrome Forecast
Issued by NWS

Home | Current Version | Previous Version | Text Only | Print | Product List | Glossary On
Versions: 1 2 3 4 5 6 7 8 9 10 11 12 13 14 15 16 17 18 19 20 21 22 23 24 25
000
FTUS43 KABR 280200 CCA
TAFATY
TAF COR
KATY 280257Z 2803/2824 15013G19KT P6SM SCT050 BKN060 OVC090
     FM281200 VRB06KT P6SM BKN030 OVC070
     FM281800 11006KT P6SM SCT030 SCT250=

USA.gov is the U.S. government's official web portal to all federal, state and local government web resources and services.